sensor_id;sensor_type;location;lat;lon;timestamp;pressure;altitude;pressure_sealevel;temperature;humidity
71795;BME280;59641;45.188;5.712;2023-03-19T00:02:11;99261.69;;;15.31;43.05
71795;BME280;59641;45.188;5.712;2023-03-19T00:04:37;99258.19;;;15.30;43.08
71795;BME280;59641;45.188;5.712;2023-03-19T00:07:02;99265.22;;;15.31;43.13
71795;BME280;59641;45.188;5.712;2023-03-19T00:09:27;99267.09;;;15.31;43.18
71795;BME280;59641;45.188;5.712;2023-03-19T00:11:53;99263.59;;;15.30;42.92
71795;BME280;59641;45.188;5.712;2023-03-19T00:14:18;99263.03;;;15.28;43.14
71795;BME280;59641;45.188;5.712;2023-03-19T00:16:44;99267.06;;;15.26;42.88
71795;BME280;59641;45.188;5.712;2023-03-19T00:19:09;99270.00;;;15.24;42.87
71795;BME280;59641;45.188;5.712;2023-03-19T00:21:35;99268.38;;;15.23;43.02
71795;BME280;59641;45.188;5.712;2023-03-19T00:24:00;99272.41;;;15.21;42.66
71795;BME280;59641;45.188;5.712;2023-03-19T00:26:27;99276.41;;;15.18;42.93
71795;BME280;59641;45.188;5.712;2023-03-19T00:28:54;99269.88;;;15.14;42.72
71795;BME280;59641;45.188;5.712;2023-03-19T00:31:20;99273.91;;;15.11;42.77
71795;BME280;59641;45.188;5.712;2023-03-19T00:33:46;99270.63;;;15.09;42.54
71795;BME280;59641;45.188;5.712;2023-03-19T00:36:11;99274.66;;;15.07;43.11
71795;BME280;59641;45.188;5.712;2023-03-19T00:38:37;99282.75;;;15.07;42.90
71795;BME280;59641;45.188;5.712;2023-03-19T00:41:04;99284.91;;;15.05;43.03
71795;BME280;59641;45.188;5.712;2023-03-19T00:43:30;99284.31;;;15.03;42.93
71795;BME280;59641;45.188;5.712;2023-03-19T00:45:56;99280.81;;;15.02;43.04
71795;BME280;59641;45.188;5.712;2023-03-19T00:48:23;99285.16;;;15.03;43.11
71795;BME280;59641;45.188;5.712;2023-03-19T00:50:48;99278.91;;;15.03;43.05
71795;BME280;59641;45.188;5.712;2023-03-19T00:53:14;99280.00;;;15.02;43.00
71795;BME280;59641;45.188;5.712;2023-03-19T00:55:39;99279.75;;;15.03;43.23
71795;BME280;59641;45.188;5.712;2023-03-19T00:58:05;99281.38;;;15.04;43.07
71795;BME280;59641;45.188;5.712;2023-03-19T01:00:31;99275.41;;;15.02;43.12
71795;BME280;59641;45.188;5.712;2023-03-19T01:02:57;99279.19;;;15.01;43.07
71795;BME280;59641;45.188;5.712;2023-03-19T01:05:22;99278.63;;;14.99;43.16
71795;BME280;59641;45.188;5.712;2023-03-19T01:07:48;99276.72;;;15.00;43.00
71795;BME280;59641;45.188;5.712;2023-03-19T01:10:20;99278.84;;;14.98;43.21
71795;BME280;59641;45.188;5.712;2023-03-19T01:12:46;99276.44;;;14.96;42.99
71795;BME280;59641;45.188;5.712;2023-03-19T01:15:12;99279.13;;;14.96;43.10
71795;BME280;59641;45.188;5.712;2023-03-19T01:17:37;99287.22;;;14.96;43.38
71795;BME280;59641;45.188;5.712;2023-03-19T01:20:07;99284.53;;;14.96;43.38
71795;BME280;59641;45.188;5.712;2023-03-19T01:22:40;99295.34;;;14.96;43.54
71795;BME280;59641;45.188;5.712;2023-03-19T01:25:07;99285.59;;;14.95;43.68
71795;BME280;59641;45.188;5.712;2023-03-19T01:27:33;99280.19;;;14.95;43.48
71795;BME280;59641;45.188;5.712;2023-03-19T01:29:59;99277.75;;;14.94;43.63
71795;BME280;59641;45.188;5.712;2023-03-19T01:32:25;99275.28;;;14.92;43.57
71795;BME280;59641;45.188;5.712;2023-03-19T01:34:50;99274.72;;;14.90;43.74
71795;BME280;59641;45.188;5.712;2023-03-19T01:37:16;99276.03;;;14.87;43.64
71795;BME280;59641;45.188;5.712;2023-03-19T01:39:41;99283.56;;;14.85;43.66
71795;BME280;59641;45.188;5.712;2023-03-19T01:42:07;99281.09;;;14.84;44.11
71795;BME280;59641;45.188;5.712;2023-03-19T01:44:35;99281.59;;;14.81;43.77
71795;BME280;59641;45.188;5.712;2023-03-19T01:47:05;99275.63;;;14.79;43.62
71795;BME280;59641;45.188;5.712;2023-03-19T01:49:35;99276.72;;;14.78;44.02
71795;BME280;59641;45.188;5.712;2023-03-19T01:52:03;99271.81;;;14.75;43.81
71795;BME280;59641;45.188;5.712;2023-03-19T01:54:31;99268.78;;;14.71;43.84
71795;BME280;59641;45.188;5.712;2023-03-19T01:57:02;99264.69;;;14.68;43.96
71795;BME280;59641;45.188;5.712;2023-03-19T01:59:35;99272.50;;;14.65;43.77
71795;BME280;59641;45.188;5.712;2023-03-19T02:02:06;99275.66;;;14.62;44.19
71795;BME280;59641;45.188;5.712;2023-03-19T02:04:34;99267.00;;;14.60;44.43
71795;BME280;59641;45.188;5.712;2023-03-19T02:07:02;99277.25;;;14.58;44.29
71795;BME280;59641;45.188;5.712;2023-03-19T02:09:29;99277.25;;;14.58;44.56
71795;BME280;59641;45.188;5.712;2023-03-19T02:11:56;99272.09;;;14.56;44.35
71795;BME280;59641;45.188;5.712;2023-03-19T02:14:21;99274.78;;;14.56;44.38
71795;BME280;59641;45.188;5.712;2023-03-19T02:16:47;99275.88;;;14.55;44.77
71795;BME280;59641;45.188;5.712;2023-03-19T02:19:17;99283.69;;;14.57;44.66
71795;BME280;59641;45.188;5.712;2023-03-19T02:21:43;99280.44;;;14.55;44.55
71795;BME280;59641;45.188;5.712;2023-03-19T02:24:16;99276.91;;;14.54;44.72
71795;BME280;59641;45.188;5.712;2023-03-19T02:26:45;99277.13;;;14.53;44.52
71795;BME280;59641;45.188;5.712;2023-03-19T02:29:12;99275.50;;;14.52;44.71
71795;BME280;59641;45.188;5.712;2023-03-19T02:31:37;99279.81;;;14.53;44.63
71795;BME280;59641;45.188;5.712;2023-03-19T02:36:56;99283.38;;;14.53;44.66
71795;BME280;59641;45.188;5.712;2023-03-19T02:39:28;99281.28;;;14.55;44.63
71795;BME280;59641;45.188;5.712;2023-03-19T02:41:57;99283.13;;;14.55;44.88
71795;BME280;59641;45.188;5.712;2023-03-19T02:44:23;99286.06;;;14.53;44.96
71795;BME280;59641;45.188;5.712;2023-03-19T02:46:49;99284.22;;;14.54;45.03
71795;BME280;59641;45.188;5.712;2023-03-19T02:49:14;99285.81;;;14.55;44.73
71795;BME280;59641;45.188;5.712;2023-03-19T02:51:40;99287.72;;;14.54;44.86
71795;BME280;59641;45.188;5.712;2023-03-19T02:54:06;99292.31;;;14.54;44.45
71795;BME280;59641;45.188;5.712;2023-03-19T02:56:32;99291.94;;;14.50;44.79
71795;BME280;59641;45.188;5.712;2023-03-19T02:58:57;99295.72;;;14.49;44.81
71795;BME280;59641;45.188;5.712;2023-03-19T03:01:22;99291.41;;;14.48;44.91
71795;BME280;59641;45.188;5.712;2023-03-19T03:03:48;99288.94;;;14.46;44.93
71795;BME280;59641;45.188;5.712;2023-03-19T03:06:14;99291.63;;;14.46;44.98
71795;BME280;59641;45.188;5.712;2023-03-19T03:08:40;99288.13;;;14.46;45.22
71795;BME280;59641;45.188;5.712;2023-03-19T03:11:05;99279.19;;;14.45;45.14
71795;BME280;59641;45.188;5.712;2023-03-19T03:13:31;99283.53;;;14.46;44.99
71795;BME280;59641;45.188;5.712;2023-03-19T03:15:57;99285.41;;;14.46;45.11
71795;BME280;59641;45.188;5.712;2023-03-19T03:18:23;99282.94;;;14.44;45.27
71795;BME280;59641;45.188;5.712;2023-03-19T03:20:48;99287.53;;;14.44;45.24
71795;BME280;59641;45.188;5.712;2023-03-19T03:23:14;99288.59;;;14.43;45.08
71795;BME280;59641;45.188;5.712;2023-03-19T03:25:39;99292.13;;;14.43;45.10
71795;BME280;59641;45.188;5.712;2023-03-19T03:28:05;99287.53;;;14.44;45.17
71795;BME280;59641;45.188;5.712;2023-03-19T03:30:31;99290.25;;;14.44;44.86
71795;BME280;59641;45.188;5.712;2023-03-19T03:32:56;99286.72;;;14.43;44.98
71795;BME280;59641;45.188;5.712;2023-03-19T03:35:22;99287.53;;;14.44;45.24
71795;BME280;59641;45.188;5.712;2023-03-19T03:37:48;99286.72;;;14.43;44.95
71795;BME280;59641;45.188;5.712;2023-03-19T03:40:14;99289.66;;;14.42;45.01
71795;BME280;59641;45.188;5.712;2023-03-19T03:42:40;99285.34;;;14.41;45.14
71795;BME280;59641;45.188;5.712;2023-03-19T03:45:06;99295.31;;;14.40;45.18
71795;BME280;59641;45.188;5.712;2023-03-19T03:47:32;99292.59;;;14.40;45.04
71795;BME280;59641;45.188;5.712;2023-03-19T03:49:57;99296.38;;;14.39;45.25
71795;BME280;59641;45.188;5.712;2023-03-19T03:52:23;99301.78;;;14.39;45.22
71795;BME280;59641;45.188;5.712;2023-03-19T03:54:48;99300.97;;;14.39;45.16
71795;BME280;59641;45.188;5.712;2023-03-19T03:57:13;99298.28;;;14.39;45.38
71795;BME280;59641;45.188;5.712;2023-03-19T03:59:39;99301.78;;;14.39;45.26
71795;BME280;59641;45.188;5.712;2023-03-19T04:02:05;99299.88;;;14.40;45.22
71795;BME280;59641;45.188;5.712;2023-03-19T04:04:30;99301.78;;;14.39;45.18
71795;BME280;59641;45.188;5.712;2023-03-19T04:06:56;99315.28;;;14.39;45.42
71795;BME280;59641;45.188;5.712;2023-03-19T04:09:21;99315.03;;;14.41;45.39
71795;BME280;59641;45.188;5.712;2023-03-19T04:11:47;99313.97;;;14.42;45.72
71795;BME280;59641;45.188;5.712;2023-03-19T04:14:13;99315.59;;;14.43;45.53
71795;BME280;59641;45.188;5.712;2023-03-19T04:16:38;99314.53;;;14.44;45.36
71795;BME280;59641;45.188;5.712;2023-03-19T04:19:04;99314.53;;;14.44;45.39
71795;BME280;59641;45.188;5.712;2023-03-19T04:21:31;99313.47;;;14.45;45.52
71795;BME280;59641;45.188;5.712;2023-03-19T04:23:57;99307.25;;;14.44;45.84
71795;BME280;59641;45.188;5.712;2023-03-19T04:26:23;99317.25;;;14.44;45.74
71795;BME280;59641;45.188;5.712;2023-03-19T04:28:48;99315.34;;;14.44;45.99
71795;BME280;59641;45.188;5.712;2023-03-19T04:31:13;99320.75;;;14.44;45.69
71795;BME280;59641;45.188;5.712;2023-03-19T04:33:39;99319.94;;;14.44;45.57
71795;BME280;59641;45.188;5.712;2023-03-19T04:36:05;99319.13;;;14.43;45.65
71795;BME280;59641;45.188;5.712;2023-03-19T04:38:31;99318.28;;;14.43;45.92
71795;BME280;59641;45.188;5.712;2023-03-19T04:40:57;99317.47;;;14.42;46.16
71795;BME280;59641;45.188;5.712;2023-03-19T04:43:23;99323.13;;;14.41;45.96
71795;BME280;59641;45.188;5.712;2023-03-19T04:45:48;99318.78;;;14.40;45.78
71795;BME280;59641;45.188;5.712;2023-03-19T04:48:14;99330.41;;;14.40;46.13
71795;BME280;59641;45.188;5.712;2023-03-19T04:50:41;99329.59;;;14.40;46.16
71795;BME280;59641;45.188;5.712;2023-03-19T04:53:06;99329.59;;;14.40;46.06
71795;BME280;59641;45.188;5.712;2023-03-19T04:55:32;99332.28;;;14.40;46.07
71795;BME280;59641;45.188;5.712;2023-03-19T04:57:58;99328.78;;;14.39;46.06
71795;BME280;59641;45.188;5.712;2023-03-19T05:00:23;99338.75;;;14.39;46.02
71795;BME280;59641;45.188;5.712;2023-03-19T05:02:49;99342.50;;;14.38;46.19
71795;BME280;59641;45.188;5.712;2023-03-19T05:05:14;99344.16;;;14.39;46.25
71795;BME280;59641;45.188;5.712;2023-03-19T05:07:40;99347.66;;;14.39;46.13
71795;BME280;59641;45.188;5.712;2023-03-19T05:10:08;99351.19;;;14.40;46.16
71795;BME280;59641;45.188;5.712;2023-03-19T05:12:33;99349.56;;;14.39;46.04
71795;BME280;59641;45.188;5.712;2023-03-19T05:15:00;99349.78;;;14.37;45.94
71795;BME280;59641;45.188;5.712;2023-03-19T05:17:26;99351.69;;;14.37;46.17
71795;BME280;59641;45.188;5.712;2023-03-19T05:19:52;99360.59;;;14.37;46.35
71795;BME280;59641;45.188;5.712;2023-03-19T05:22:18;99359.78;;;14.37;46.21
71795;BME280;59641;45.188;5.712;2023-03-19T05:24:44;99355.78;;;14.39;46.39
71795;BME280;59641;45.188;5.712;2023-03-19T05:27:10;99357.88;;;14.37;46.78
71795;BME280;59641;45.188;5.712;2023-03-19T05:29:36;99361.41;;;14.38;46.65
71795;BME280;59641;45.188;5.712;2023-03-19T05:32:01;99364.94;;;14.38;46.64
71795;BME280;59641;45.188;5.712;2023-03-19T05:34:27;99366.00;;;14.37;46.73
71795;BME280;59641;45.188;5.712;2023-03-19T05:36:56;99367.88;;;14.37;46.90
71795;BME280;59641;45.188;5.712;2023-03-19T05:39:21;99368.91;;;14.36;47.21
71795;BME280;59641;45.188;5.712;2023-03-19T05:41:47;99368.09;;;14.35;47.40
71795;BME280;59641;45.188;5.712;2023-03-19T05:44:12;99377.03;;;14.36;47.24
71795;BME280;59641;45.188;5.712;2023-03-19T05:46:38;99382.41;;;14.36;47.15
71795;BME280;59641;45.188;5.712;2023-03-19T05:49:03;99386.19;;;14.35;46.96
71795;BME280;59641;45.188;5.712;2023-03-19T05:51:29;99389.97;;;14.34;47.26
71795;BME280;59641;45.188;5.712;2023-03-19T05:53:54;99399.91;;;14.33;47.48
71795;BME280;59641;45.188;5.712;2023-03-19T05:56:20;99398.28;;;14.32;47.97
71795;BME280;59641;45.188;5.712;2023-03-19T05:58:45;99401.81;;;14.33;48.20
71795;BME280;59641;45.188;5.712;2023-03-19T06:01:11;99407.22;;;14.33;48.17
71795;BME280;59641;45.188;5.712;2023-03-19T06:03:36;99409.09;;;14.32;48.45
71795;BME280;59641;45.188;5.712;2023-03-19T06:06:02;99409.09;;;14.32;48.80
71795;BME280;59641;45.188;5.712;2023-03-19T06:08:27;99418.25;;;14.31;48.68
71795;BME280;59641;45.188;5.712;2023-03-19T06:10:52;99425.06;;;14.34;48.61
71795;BME280;59641;45.188;5.712;2023-03-19T06:13:18;99431.19;;;14.29;48.84
71795;BME280;59641;45.188;5.712;2023-03-19T06:15:43;99427.09;;;14.26;49.35
71795;BME280;59641;45.188;5.712;2023-03-19T06:18:09;99432.72;;;14.25;49.90
71795;BME280;59641;45.188;5.712;2023-03-19T06:20:34;99434.59;;;14.24;49.89
71795;BME280;59641;45.188;5.712;2023-03-19T06:23:00;99443.16;;;14.21;50.10
71795;BME280;59641;45.188;5.712;2023-03-19T06:25:25;99441.75;;;14.19;49.84
71795;BME280;59641;45.188;5.712;2023-03-19T06:27:51;99453.63;;;14.18;49.74
71795;BME280;59641;45.188;5.712;2023-03-19T06:30:16;99454.94;;;14.15;50.21
71795;BME280;59641;45.188;5.712;2023-03-19T06:32:42;99456.00;;;14.14;50.25
71795;BME280;59641;45.188;5.712;2023-03-19T06:35:08;99455.44;;;14.12;50.43
71795;BME280;59641;45.188;5.712;2023-03-19T06:37:33;99462.94;;;14.10;50.69
71795;BME280;59641;45.188;5.712;2023-03-19T06:39:58;99464.25;;;14.07;50.93
71795;BME280;59641;45.188;5.712;2023-03-19T06:42:24;99470.69;;;14.06;50.90
71795;BME280;59641;45.188;5.712;2023-03-19T06:44:49;99462.84;;;14.05;50.62
71795;BME280;59641;45.188;5.712;2023-03-19T06:47:15;99468.47;;;14.03;50.96
71795;BME280;59641;45.188;5.712;2023-03-19T06:49:40;99470.00;;;13.99;50.91
71795;BME280;59641;45.188;5.712;2023-03-19T06:52:06;99465.09;;;13.96;51.24
71795;BME280;59641;45.188;5.712;2023-03-19T06:54:32;99476.69;;;13.97;51.28
71795;BME280;59641;45.188;5.712;2023-03-19T06:56:57;99471.56;;;13.95;51.36
71795;BME280;59641;45.188;5.712;2023-03-19T06:59:23;99472.38;;;13.96;51.45
71795;BME280;59641;45.188;5.712;2023-03-19T07:01:49;99476.94;;;13.95;51.28
71795;BME280;59641;45.188;5.712;2023-03-19T07:04:15;99485.84;;;13.96;51.71
71795;BME280;59641;45.188;5.712;2023-03-19T07:06:40;99485.84;;;13.96;52.04
71795;BME280;59641;45.188;5.712;2023-03-19T07:09:06;99488.56;;;13.96;52.41
71795;BME280;59641;45.188;5.712;2023-03-19T07:11:32;99491.25;;;13.96;52.41
71795;BME280;59641;45.188;5.712;2023-03-19T07:13:57;99488.56;;;13.96;52.46
71795;BME280;59641;45.188;5.712;2023-03-19T07:16:22;99491.25;;;13.96;53.11
71795;BME280;59641;45.188;5.712;2023-03-19T07:18:48;99489.59;;;13.95;52.84
71795;BME280;59641;45.188;5.712;2023-03-19T07:21:13;99496.66;;;13.96;53.62
71795;BME280;59641;45.188;5.712;2023-03-19T07:23:39;99502.28;;;13.94;53.49
71795;BME280;59641;45.188;5.712;2023-03-19T07:26:05;99504.97;;;13.94;53.12
71795;BME280;59641;45.188;5.712;2023-03-19T07:28:30;99507.09;;;13.92;53.81
71795;BME280;59641;45.188;5.712;2023-03-19T07:30:56;99509.19;;;13.90;53.46
71795;BME280;59641;45.188;5.712;2023-03-19T07:33:21;99519.44;;;13.88;53.81
71795;BME280;59641;45.188;5.712;2023-03-19T07:35:47;99521.75;;;13.84;54.19
71795;BME280;59641;45.188;5.712;2023-03-19T07:38:13;99521.75;;;13.84;54.79
71795;BME280;59641;45.188;5.712;2023-03-19T07:40:39;99527.97;;;13.85;55.06
71795;BME280;59641;45.188;5.712;2023-03-19T07:43:04;99536.91;;;13.85;55.26
71795;BME280;59641;45.188;5.712;2023-03-19T07:45:30;99533.13;;;13.87;55.77
71795;BME280;59641;45.188;5.712;2023-03-19T07:47:55;99534.75;;;13.88;55.76
71795;BME280;59641;45.188;5.712;2023-03-19T07:50:21;99542.03;;;13.87;55.71
71795;BME280;59641;45.188;5.712;2023-03-19T07:52:47;99537.47;;;13.88;55.93
71795;BME280;59641;45.188;5.712;2023-03-19T07:55:13;99532.91;;;13.88;56.49
71795;BME280;59641;45.188;5.712;2023-03-19T07:57:39;99538.31;;;13.88;56.69
71795;BME280;59641;45.188;5.712;2023-03-19T08:00:05;99553.41;;;13.89;56.91
71795;BME280;59641;45.188;5.712;2023-03-19T08:02:32;99549.66;;;13.90;57.14
71795;BME280;59641;45.188;5.712;2023-03-19T08:04:57;99551.31;;;13.91;57.16
71795;BME280;59641;45.188;5.712;2023-03-19T08:07:26;99544.03;;;13.92;57.03
71795;BME280;59641;45.188;5.712;2023-03-19T08:09:51;99548.63;;;13.91;56.58
71795;BME280;59641;45.188;5.712;2023-03-19T08:12:17;99552.13;;;13.92;56.04
71795;BME280;59641;45.188;5.712;2023-03-19T08:14:42;99557.41;;;13.87;56.73
71795;BME280;59641;45.188;5.712;2023-03-19T08:17:08;99547.91;;;13.84;57.03
71795;BME280;59641;45.188;5.712;2023-03-19T08:19:33;99556.81;;;13.84;57.32
71795;BME280;59641;45.188;5.712;2023-03-19T08:21:59;99562.00;;;13.86;57.68
71795;BME280;59641;45.188;5.712;2023-03-19T08:24:24;99557.41;;;13.87;57.72
71795;BME280;59641;45.188;5.712;2023-03-19T08:26:50;99554.72;;;13.87;58.14
71795;BME280;59641;45.188;5.712;2023-03-19T08:29:15;99555.31;;;13.89;58.44
71795;BME280;59641;45.188;5.712;2023-03-19T08:31:41;99562.31;;;13.90;58.44
71795;BME280;59641;45.188;5.712;2023-03-19T08:34:07;99549.44;;;13.92;57.26
71795;BME280;59641;45.188;5.712;2023-03-19T08:36:34;99556.34;;;13.88;57.94
71795;BME280;59641;45.188;5.712;2023-03-19T08:39:00;99547.69;;;13.85;58.23
71795;BME280;59641;45.188;5.712;2023-03-19T08:41:26;99558.47;;;13.85;58.82
71795;BME280;59641;45.188;5.712;2023-03-19T08:43:51;99554.72;;;13.87;58.70
71795;BME280;59641;45.188;5.712;2023-03-19T08:46:17;99550.72;;;13.89;58.38
71795;BME280;59641;45.188;5.712;2023-03-19T08:48:43;99548.84;;;13.90;59.12
71795;BME280;59641;45.188;5.712;2023-03-19T08:51:08;99556.72;;;13.91;59.18
71795;BME280;59641;45.188;5.712;2023-03-19T08:53:35;99561.88;;;13.93;58.81
71795;BME280;59641;45.188;5.712;2023-03-19T08:56:02;99569.13;;;13.92;58.29
71795;BME280;59641;45.188;5.712;2023-03-19T08:58:29;99574.19;;;13.89;58.38
71795;BME280;59641;45.188;5.712;2023-03-19T09:01:09;99565.28;;;13.88;58.63
71795;BME280;59641;45.188;5.712;2023-03-19T09:03:35;99568.78;;;13.89;58.45
71795;BME280;59641;45.188;5.712;2023-03-19T09:06:03;99573.38;;;13.88;58.62
71795;BME280;59641;45.188;5.712;2023-03-19T09:08:29;99573.59;;;13.87;58.55
71795;BME280;59641;45.188;5.712;2023-03-19T09:10:55;99574.41;;;13.87;58.00
71795;BME280;59641;45.188;5.712;2023-03-19T09:13:21;99575.47;;;13.86;58.93
71795;BME280;59641;45.188;5.712;2023-03-19T09:15:47;99573.38;;;13.88;58.95
71795;BME280;59641;45.188;5.712;2023-03-19T09:18:12;99574.19;;;13.89;58.46
71795;BME280;59641;45.188;5.712;2023-03-19T09:20:38;99571.50;;;13.89;58.65
71795;BME280;59641;45.188;5.712;2023-03-19T09:23:03;99585.78;;;13.89;58.64
71795;BME280;59641;45.188;5.712;2023-03-19T09:25:28;99585.78;;;13.89;59.18
71795;BME280;59641;45.188;5.712;2023-03-19T09:27:54;99579.09;;;13.92;59.15
71795;BME280;59641;45.188;5.712;2023-03-19T09:30:19;99578.88;;;13.93;59.22
71795;BME280;59641;45.188;5.712;2023-03-19T09:32:45;99574.88;;;13.96;59.21
71795;BME280;59641;45.188;5.712;2023-03-19T09:35:11;99577.59;;;13.96;59.62
71795;BME280;59641;45.188;5.712;2023-03-19T09:37:36;99582.28;;;14.00;59.77
71795;BME280;59641;45.188;5.712;2023-03-19T09:40:02;99580.16;;;14.02;59.68
71795;BME280;59641;45.188;5.712;2023-03-19T09:42:43;99579.69;;;14.05;59.52
71795;BME280;59641;45.188;5.712;2023-03-19T09:45:13;99579.44;;;14.07;59.73
71795;BME280;59641;45.188;5.712;2023-03-19T09:47:40;99576.50;;;14.09;59.31
71795;BME280;59641;45.188;5.712;2023-03-19T09:50:16;99583.28;;;14.11;59.54
71795;BME280;59641;45.188;5.712;2023-03-19T09:52:48;99576.84;;;14.12;59.52
71795;BME280;59641;45.188;5.712;2023-03-19T09:57:49;99574.75;;;14.14;59.75
71795;BME280;59641;45.188;5.712;2023-03-19T10:00:21;99561.81;;;14.16;59.49
71795;BME280;59641;45.188;5.712;2023-03-19T10:02:55;99559.69;;;14.18;59.33
71795;BME280;59641;45.188;5.712;2023-03-19T10:13:55;99566.94;;;14.30;59.78
71795;BME280;59641;45.188;5.712;2023-03-19T10:16:25;99565.06;;;14.30;59.95
71795;BME280;59641;45.188;5.712;2023-03-19T10:18:53;99565.41;;;14.34;59.78
71795;BME280;59641;45.188;5.712;2023-03-19T10:22:04;99554.94;;;14.37;59.47
71795;BME280;59641;45.188;5.712;2023-03-19T10:24:40;99565.75;;;14.37;59.40
71795;BME280;59641;45.188;5.712;2023-03-19T10:27:13;99560.34;;;14.37;58.87
71795;BME280;59641;45.188;5.712;2023-03-19T10:29:39;99563.84;;;14.38;59.39
71795;BME280;59641;45.188;5.712;2023-03-19T10:32:17;99558.00;;;14.41;59.18
71795;BME280;59641;45.188;5.712;2023-03-19T10:34:48;99555.84;;;14.43;59.70
71795;BME280;59641;45.188;5.712;2023-03-19T10:37:23;99548.94;;;14.47;59.56
71795;BME280;59641;45.188;5.712;2023-03-19T10:39:52;99553.84;;;14.50;59.39
71795;BME280;59641;45.188;5.712;2023-03-19T10:45:20;99554.31;;;14.59;58.83
71795;BME280;59641;45.188;5.712;2023-03-19T10:47:48;99552.44;;;14.59;59.41
71795;BME280;59641;45.188;5.712;2023-03-19T10:50:22;99548.19;;;14.63;59.20
71795;BME280;59641;45.188;5.712;2023-03-19T10:52:59;99548.28;;;14.68;59.36
71795;BME280;59641;45.188;5.712;2023-03-19T10:55:31;99545.09;;;14.72;59.30
71795;BME280;59641;45.188;5.712;2023-03-19T10:58:16;99546.84;;;14.78;59.03
71795;BME280;59641;45.188;5.712;2023-03-19T11:00:47;99546.34;;;14.81;58.98
71795;BME280;59641;45.188;5.712;2023-03-19T11:08:35;99535.97;;;14.89;58.10
71795;BME280;59641;45.188;5.712;2023-03-19T11:11:02;99537.59;;;14.90;58.63
71795;BME280;59641;45.188;5.712;2023-03-19T11:13:27;99542.53;;;14.94;58.44
71795;BME280;59641;45.188;5.712;2023-03-19T11:15:57;99536.03;;;14.95;58.10
71795;BME280;59641;45.188;5.712;2023-03-19T11:18:27;99533.13;;;14.96;58.25
71795;BME280;59641;45.188;5.712;2023-03-19T11:21:05;99528.03;;;15.00;57.61
71795;BME280;59641;45.188;5.712;2023-03-19T11:23:40;99530.41;;;14.96;57.56
71795;BME280;59641;45.188;5.712;2023-03-19T11:26:06;99524.16;;;14.96;57.77
71795;BME280;59641;45.188;5.712;2023-03-19T11:28:31;99532.03;;;14.97;57.97
71795;BME280;59641;45.188;5.712;2023-03-19T11:31:11;99520.50;;;15.02;57.92
71795;BME280;59641;45.188;5.712;2023-03-19T11:42:03;99517.78;;;15.19;57.89
71795;BME280;59641;45.188;5.712;2023-03-19T11:47:19;99498.78;;;15.30;57.07
71795;BME280;59641;45.188;5.712;2023-03-19T11:53:02;99500.88;;;15.45;57.08
71795;BME280;59641;45.188;5.712;2023-03-19T12:01:02;99491.03;;;15.73;55.21
71795;BME280;59641;45.188;5.712;2023-03-19T12:06:45;99481.09;;;15.79;54.06
71795;BME280;59641;45.188;5.712;2023-03-19T12:09:40;99479.75;;;15.81;53.90
71795;BME280;59641;45.188;5.712;2023-03-19T12:12:31;99478.38;;;15.79;53.48
71795;BME280;59641;45.188;5.712;2023-03-19T12:15:09;99476.19;;;15.75;53.41
71795;BME280;59641;45.188;5.712;2023-03-19T12:20:21;99466.13;;;15.71;53.50
71795;BME280;59641;45.188;5.712;2023-03-19T12:25:49;99466.84;;;15.66;53.17
71795;BME280;59641;45.188;5.712;2023-03-19T12:28:22;99463.31;;;15.66;52.77
71795;BME280;59641;45.188;5.712;2023-03-19T12:31:06;99462.19;;;15.62;52.37
71795;BME280;59641;45.188;5.712;2023-03-19T12:36:12;99462.47;;;15.65;52.74
71795;BME280;59641;45.188;5.712;2023-03-19T12:38:50;99457.63;;;15.67;52.69
71795;BME280;59641;45.188;5.712;2023-03-19T12:41:23;99463.13;;;15.72;53.48
71795;BME280;59641;45.188;5.712;2023-03-19T12:46:49;99448.91;;;15.82;53.52
71795;BME280;59641;45.188;5.712;2023-03-19T12:52:21;99448.22;;;15.92;53.31
71795;BME280;59641;45.188;5.712;2023-03-19T12:54:55;99452.06;;;15.96;52.52
71795;BME280;59641;45.188;5.712;2023-03-19T12:57:33;99446.97;;;16.00;52.42
71795;BME280;59641;45.188;5.712;2023-03-19T13:00:12;99445.91;;;16.01;52.47
71795;BME280;59641;45.188;5.712;2023-03-19T13:02:49;99441.88;;;16.03;52.59
71795;BME280;59641;45.188;5.712;2023-03-19T13:10:31;99438.66;;;16.06;52.35
71795;BME280;59641;45.188;5.712;2023-03-19T13:12:57;99434.06;;;16.07;52.87
71795;BME280;59641;45.188;5.712;2023-03-19T13:15:41;99437.88;;;16.11;52.42
71795;BME280;59641;45.188;5.712;2023-03-19T13:18:15;99432.47;;;16.11;52.60
71795;BME280;59641;45.188;5.712;2023-03-19T13:23:33;99429.53;;;16.12;52.96
71795;BME280;59641;45.188;5.712;2023-03-19T13:26:02;99426.56;;;16.14;52.70
71795;BME280;59641;45.188;5.712;2023-03-19T13:28:32;99423.03;;;16.13;53.21
71795;BME280;59641;45.188;5.712;2023-03-19T13:33:29;99415.78;;;16.19;52.88
71795;BME280;59641;45.188;5.712;2023-03-19T13:35:56;99409.84;;;16.22;53.08
71795;BME280;59641;45.188;5.712;2023-03-19T13:38:48;99406.63;;;16.25;53.00
71795;BME280;59641;45.188;5.712;2023-03-19T13:44:17;99398.56;;;16.30;52.81
71795;BME280;59641;45.188;5.712;2023-03-19T13:46:45;99395.84;;;16.30;52.51
71795;BME280;59641;45.188;5.712;2023-03-19T13:49:27;99388.03;;;16.34;52.51
71795;BME280;59641;45.188;5.712;2023-03-19T13:51:56;99395.88;;;16.35;53.06
71795;BME280;59641;45.188;5.712;2023-03-19T13:54:39;99382.66;;;16.39;52.99
71795;BME280;59641;45.188;5.712;2023-03-19T13:57:16;99387.31;;;16.44;52.49
71795;BME280;59641;45.188;5.712;2023-03-19T13:59:45;99380.00;;;16.44;52.30
71795;BME280;59641;45.188;5.712;2023-03-19T14:05:06;99372.19;;;16.48;51.53
71795;BME280;59641;45.188;5.712;2023-03-19T14:07:37;99367.59;;;16.48;51.15
71795;BME280;59641;45.188;5.712;2023-03-19T14:10:23;99365.97;;;16.52;51.36
71795;BME280;59641;45.188;5.712;2023-03-19T14:12:51;99370.31;;;16.53;51.09
71795;BME280;59641;45.188;5.712;2023-03-19T14:15:27;99361.63;;;16.51;51.14
71795;BME280;59641;45.188;5.712;2023-03-19T14:17:56;99359.75;;;16.52;50.39
71795;BME280;59641;45.188;5.712;2023-03-19T14:20:26;99356.22;;;16.51;50.39